^^
Saratoga-Weather Station Historical Data
Daily Summary for September 27, 2020 Units:  Both    English   Metric
Daily Weekly Monthly Yearly Custom
  High: Low: Average:
Temperature: 54.9 °F /  12.7 °C 45.1 °F /  7.3 °C 50.4 °F /  10.2 °C
Dew Point: 52.5 °F /  11.4 °C 43.9 °F /  6.6 °C 48.4 °F /  9.1 °C
Humidity: 96% 87% 93%
Wind Speed: 12.1mph /  19.5km/h - 2.1mph /  3.4km/h
Wind Gust: 14mph /  22.5km/h - -
Wind- - SSE
Pressure: 29.8 in /  1007.8 hPa 29.4 in /  994.2 hPa -
Precipitation: 0.87 in /  22.1 mm    
Historical Graphs
 
 
Tabular Data for September 27, 2020
Time Temperature Dew Point Pressure Wind Wind Speed Wind Gust Humidity Rainfall Rate (Hourly) solar
00:03 48.9 °F /  9.4 °C 46.9 °F /  8.3 °C 29.6in /  1000.7hPa West 2mph /  3.2km/h 9mph /  14.5km/h 93% 0in /  0.0mm 0 W/m2
00:08 48.9 °F /  9.4 °C 46.9 °F /  8.3 °C 29.6in /  1000.7hPa WNW 8.1mph /  13km/h 11mph /  17.7km/h 93% 0in /  0.0mm 0 W/m2
00:13 48.9 °F /  9.4 °C 46.9 °F /  8.3 °C 29.6in /  1000.7hPa West 6mph /  9.7km/h 7mph /  11.3km/h 93% 0in /  0.0mm 0 W/m2
00:18 49.1 °F /  9.5 °C 47.1 °F /  8.4 °C 29.6in /  1000.7hPa WSW 4mph /  6.4km/h 8mph /  12.9km/h 93% 0in /  0.0mm 0 W/m2
00:23 49.1 °F /  9.5 °C 47.1 °F /  8.4 °C 29.6in /  1000.7hPa West 4mph /  6.4km/h 12mph /  19.3km/h 93% 0in /  0.0mm 0 W/m2
00:28 49.1 °F /  9.5 °C 47.1 °F /  8.4 °C 29.6in /  1000.7hPa West 2mph /  3.2km/h 6mph /  9.7km/h 93% 0in /  0.0mm 0 W/m2
00:33 49.1 °F /  9.5 °C 47.1 °F /  8.4 °C 29.6in /  1000.7hPa WNW 4mph /  6.4km/h 12mph /  19.3km/h 93% 0.01in /  0.2mm 0 W/m2
00:38 49.1 °F /  9.5 °C 47.1 °F /  8.4 °C 29.6in /  1000.7hPa NW 4mph /  6.4km/h 9mph /  14.5km/h 93% 0.01in /  0.2mm 0 W/m2
00:43 49.3 °F /  9.6 °C 47.3 °F /  8.5 °C 29.5in /  1000.3hPa WNW 6.9mph /  11.1km/h 11mph /  17.7km/h 93% 0.01in /  0.2mm 0 W/m2
00:48 49.3 °F /  9.6 °C 47.3 °F /  8.5 °C 29.5in /  1000.3hPa WSW 6mph /  9.7km/h 11mph /  17.7km/h 93% 0.02in /  0.5mm 0 W/m2
00:53 49.3 °F /  9.6 °C 47.3 °F /  8.5 °C 29.5in /  1000.3hPa West 6mph /  9.7km/h 8mph /  12.9km/h 93% 0.02in /  0.5mm 0 W/m2
00:58 49.3 °F /  9.6 °C 47.3 °F /  8.5 °C 29.5in /  1000.3hPa West 2.9mph /  4.7km/h 9mph /  14.5km/h 93% 0.02in /  0.5mm 0 W/m2
01:08 49.5 °F /  9.7 °C 47.5 °F /  8.6 °C 29.5in /  1000.3hPa West 8.1mph /  13km/h 11mph /  17.7km/h 93% 0.03in /  0.8mm 0 W/m2
01:13 49.5 °F /  9.7 °C 47.5 °F /  8.6 °C 29.5in /  1000.3hPa West 2.9mph /  4.7km/h 12mph /  19.3km/h 93% 0.03in /  0.8mm 0 W/m2
01:18 49.5 °F /  9.7 °C 47.5 °F /  8.6 °C 29.5in /  1000.3hPa West 2.9mph /  4.7km/h 11mph /  17.7km/h 93% 0.04in /  1.0mm 0 W/m2
01:23 49.5 °F /  9.7 °C 47.5 °F /  8.6 °C 29.5in /  1000.0hPa West 6mph /  9.7km/h   93% 0.04in /  1.0mm 0 W/m2
01:28 49.5 °F /  9.7 °C 47.5 °F /  8.6 °C 29.5in /  1000.0hPa West 6mph /  9.7km/h 9mph /  14.5km/h 93% 0.05in /  1.3mm 0 W/m2
01:33 49.5 °F /  9.7 °C 47.5 °F /  8.6 °C 29.5in /  1000.0hPa West 2.9mph /  4.7km/h   93% 0.05in /  1.3mm 0 W/m2
01:38 49.3 °F /  9.6 °C 47.3 °F /  8.5 °C 29.5in /  1000.0hPa WSW 4.9mph /  7.9km/h 6mph /  9.7km/h 93% 0.06in /  1.5mm 0 W/m2
01:43 49.3 °F /  9.6 °C 47.3 °F /  8.5 °C 29.5in /  1000.0hPa West 4mph /  6.4km/h 12mph /  19.3km/h 93% 0.07in /  1.8mm 0 W/m2
01:48 49.3 °F /  9.6 °C 47.3 °F /  8.5 °C 29.5in /  999.7hPa WSW 4.9mph /  7.9km/h 10mph /  16.1km/h 93% 0.07in /  1.8mm 0 W/m2
01:53 49.3 °F /  9.6 °C 47.3 °F /  8.5 °C 29.5in /  999.7hPa WSW 8.9mph /  14.3km/h 12mph /  19.3km/h 93% 0.07in /  1.8mm 0 W/m2
01:58 49.3 °F /  9.6 °C 47.3 °F /  8.5 °C 29.5in /  999.7hPa West 4mph /  6.4km/h 9mph /  14.5km/h 93% 0.07in /  1.8mm 0 W/m2
02:03 49.3 °F /  9.6 °C 47.3 °F /  8.5 °C 29.5in /  999.7hPa WSW 4mph /  6.4km/h 12mph /  19.3km/h 93% 0.07in /  1.8mm 0 W/m2
02:08 49.3 °F /  9.6 °C 47.3 °F /  8.5 °C 29.5in /  999.7hPa WNW 4mph /  6.4km/h 7mph /  11.3km/h 93% 0.07in /  1.8mm 0 W/m2
02:13 49.1 °F /  9.5 °C 47.5 °F /  8.6 °C 29.5in /  999.3hPa WSW 4mph /  6.4km/h 8mph /  12.9km/h 94% 0.07in /  1.8mm 0 W/m2
02:18 49.1 °F /  9.5 °C 47.5 °F /  8.6 °C 29.5in /  999.3hPa WSW 2mph /  3.2km/h 7mph /  11.3km/h 94% 0.07in /  1.8mm 0 W/m2
02:23 49.1 °F /  9.5 °C 47.5 °F /  8.6 °C 29.5in /  999.3hPa West 6.9mph /  11.1km/h 10mph /  16.1km/h 94% 0.07in /  1.8mm 0 W/m2
02:28 48.9 °F /  9.4 °C 47.3 °F /  8.5 °C 29.5in /  999.0hPa WNW 2.9mph /  4.7km/h 12mph /  19.3km/h 94% 0.07in /  1.8mm 0 W/m2
02:33 48.9 °F /  9.4 °C 47.3 °F /  8.5 °C 29.5in /  999.0hPa WNW 6.9mph /  11.1km/h 7mph /  11.3km/h 94% 0.07in /  1.8mm 0 W/m2
02:38 48.9 °F /  9.4 °C 47.3 °F /  8.5 °C 29.5in /  999.0hPa West 6mph /  9.7km/h 9mph /  14.5km/h 94% 0.06in /  1.5mm 0 W/m2
02:43 48.9 °F /  9.4 °C 47.3 °F /  8.5 °C 29.5in /  998.6hPa NW 0.9mph /  1.4km/h 6mph /  9.7km/h 94% 0.06in /  1.5mm 0 W/m2
02:48 48.9 °F /  9.4 °C 47.3 °F /  8.5 °C 29.5in /  998.6hPa North 2.9mph /  4.7km/h 12mph /  19.3km/h 94% 0.06in /  1.5mm 0 W/m2
02:53 48.9 °F /  9.4 °C 47.3 °F /  8.5 °C 29.5in /  998.6hPa West 2mph /  3.2km/h 7mph /  11.3km/h 94% 0.07in /  1.8mm 0 W/m2
02:58 48.9 °F /  9.4 °C 47.3 °F /  8.5 °C 29.5in /  998.3hPa West 4mph /  6.4km/h 12mph /  19.3km/h 94% 0.07in /  1.8mm 0 W/m2
03:03 48.9 °F /  9.4 °C 47.3 °F /  8.5 °C 29.5in /  998.3hPa WSW 4.9mph /  7.9km/h 5mph /  8km/h 94% 0.08in /  2.0mm 0 W/m2
03:08 49.1 °F /  9.5 °C 47.5 °F /  8.6 °C 29.5in /  998.3hPa SW 2.9mph /  4.7km/h 8mph /  12.9km/h 94% 0.07in /  1.8mm 0 W/m2
03:13 49.1 °F /  9.5 °C 47.5 °F /  8.6 °C 29.5in /  998.3hPa WNW 6.9mph /  11.1km/h 12mph /  19.3km/h 94% 0.08in /  2.0mm 0 W/m2
03:18 49.1 °F /  9.5 °C 47.5 °F /  8.6 °C 29.5in /  998.3hPa NW 2mph /  3.2km/h 9mph /  14.5km/h 94% 0.07in /  1.8mm 0 W/m2
03:23 49.3 °F /  9.6 °C 47.3 °F /  8.5 °C 29.5in /  998.0hPa WSW 2.9mph /  4.7km/h 12mph /  19.3km/h 93% 0.08in /  2.0mm 0 W/m2
03:28 49.1 °F /  9.5 °C 47.1 °F /  8.4 °C 29.5in /  998.0hPa NW 2.9mph /  4.7km/h 7mph /  11.3km/h 93% 0.07in /  1.8mm 0 W/m2
03:33 49.1 °F /  9.5 °C 47.1 °F /  8.4 °C 29.5in /  998.0hPa West 4mph /  6.4km/h 10mph /  16.1km/h 93% 0.07in /  1.8mm 0 W/m2
03:38 49.1 °F /  9.5 °C 47.1 °F /  8.4 °C 29.5in /  998.0hPa WSW 4mph /  6.4km/h 9mph /  14.5km/h 93% 0.06in /  1.5mm 0 W/m2
03:43 49.3 °F /  9.6 °C 47.3 °F /  8.5 °C 29.5in /  998.0hPa West 12.1mph /  19.5km/h 14mph /  22.5km/h 93% 0.06in /  1.5mm 0 W/m2
03:48 49.3 °F /  9.6 °C 47.3 °F /  8.5 °C 29.5in /  998.0hPa West 6mph /  9.7km/h 13mph /  20.9km/h 93% 0.06in /  1.5mm 0 W/m2
03:54 49.3 °F /  9.6 °C 47.3 °F /  8.5 °C 29.5in /  998.0hPa West 8.9mph /  14.3km/h 11mph /  17.7km/h 93% 0.06in /  1.5mm 0 W/m2
03:59 49.3 °F /  9.6 °C 47.3 °F /  8.5 °C 29.5in /  997.6hPa SSW 6mph /  9.7km/h 10mph /  16.1km/h 93% 0.06in /  1.5mm 0 W/m2
04:04 49.3 °F /  9.6 °C 47.3 °F /  8.5 °C 29.5in /  997.6hPa NW 2mph /  3.2km/h 12mph /  19.3km/h 93% 0.06in /  1.5mm 0 W/m2
04:09 49.5 °F /  9.7 °C 47.5 °F /  8.6 °C 29.5in /  997.3hPa West 2mph /  3.2km/h 9mph /  14.5km/h 93% 0.07in /  1.8mm 0 W/m2
04:14 49.5 °F /  9.7 °C 47.5 °F /  8.6 °C 29.5in /  997.3hPa WNW 4mph /  6.4km/h 12mph /  19.3km/h 93% 0.07in /  1.8mm 0 W/m2
04:19 49.5 °F /  9.7 °C 47.5 °F /  8.6 °C 29.5in /  997.3hPa SW 2.9mph /  4.7km/h 6mph /  9.7km/h 93% 0.08in /  2.0mm 0 W/m2
04:24 49.3 °F /  9.6 °C 47.3 °F /  8.5 °C 29.4in /  997.0hPa West 6.9mph /  11.1km/h 12mph /  19.3km/h 93% 0.07in /  1.8mm 0 W/m2
04:29 49.5 °F /  9.7 °C 47.5 °F /  8.6 °C 29.4in /  997.0hPa WSW 2mph /  3.2km/h 4mph /  6.4km/h 93% 0.08in /  2.0mm 0 W/m2
04:34 49.3 °F /  9.6 °C 47.3 °F /  8.5 °C 29.4in /  997.0hPa WNW 2mph /  3.2km/h 10mph /  16.1km/h 93% 0.08in /  2.0mm 0 W/m2
04:39 49.3 °F /  9.6 °C 47.3 °F /  8.5 °C 29.4in /  997.0hPa West 2.9mph /  4.7km/h 7mph /  11.3km/h 93% 0.08in /  2.0mm 0 W/m2
04:44 49.5 °F /  9.7 °C 47.5 °F /  8.6 °C 29.4in /  996.6hPa WNW 0.9mph /  1.4km/h 8mph /  12.9km/h 93% 0.09in /  2.3mm 0 W/m2
04:49 49.5 °F /  9.7 °C 47.5 °F /  8.6 °C 29.4in /  997.0hPa Calm   8mph /  12.9km/h 93% 0.08in /  2.0mm 0 W/m2
04:54 49.5 °F /  9.7 °C 47.5 °F /  8.6 °C 29.4in /  997.0hPa West 2.9mph /  4.7km/h 10mph /  16.1km/h 93% 0.09in /  2.3mm 0 W/m2
04:59 49.5 °F /  9.7 °C 47.5 °F /  8.6 °C 29.4in /  996.6hPa West 8.9mph /  14.3km/h 10mph /  16.1km/h 93% 0.09in /  2.3mm 0 W/m2
05:04 49.3 °F /  9.6 °C 47.3 °F /  8.5 °C 29.4in /  996.6hPa West 2.9mph /  4.7km/h 10mph /  16.1km/h 93% 0.09in /  2.3mm 0 W/m2
05:09 49.3 °F /  9.6 °C 47.3 °F /  8.5 °C 29.4in /  996.6hPa West 6mph /  9.7km/h 10mph /  16.1km/h 93% 0.1in /  2.5mm 0 W/m2
05:14 49.5 °F /  9.7 °C 47.5 °F /  8.6 °C 29.4in /  996.6hPa NW 4.9mph /  7.9km/h 13mph /  20.9km/h 93% 0.11in /  2.8mm 0 W/m2
05:19 49.5 °F /  9.7 °C 47.5 °F /  8.6 °C 29.4in /  996.6hPa WNW 4mph /  6.4km/h 8mph /  12.9km/h 93% 0.12in /  3.0mm 0 W/m2
05:24 49.5 °F /  9.7 °C 47.8 °F /  8.8 °C 29.4in /  996.3hPa WNW 4mph /  6.4km/h 13mph /  20.9km/h 94% 0.13in /  3.3mm 0 W/m2
05:29 49.3 °F /  9.6 °C 47.7 °F /  8.7 °C 29.4in /  996.3hPa West 6mph /  9.7km/h 10mph /  16.1km/h 94% 0.14in /  3.6mm 0 W/m2
05:34 49.3 °F /  9.6 °C 47.7 °F /  8.7 °C 29.4in /  995.9hPa WSW 2mph /  3.2km/h 6mph /  9.7km/h 94% 0.14in /  3.6mm 0 W/m2
05:39 49.3 °F /  9.6 °C 47.7 °F /  8.7 °C 29.4in /  995.9hPa North 2mph /  3.2km/h 10mph /  16.1km/h 94% 0.14in /  3.6mm 0 W/m2
05:44 49.3 °F /  9.6 °C 47.7 °F /  8.7 °C 29.4in /  995.9hPa NW 2mph /  3.2km/h 7mph /  11.3km/h 94% 0.14in /  3.6mm 0 W/m2
05:49 49.5 °F /  9.7 °C 47.8 °F /  8.8 °C 29.4in /  995.9hPa SW 0.9mph /  1.4km/h 3mph /  4.8km/h 94% 0.16in /  4.1mm 0 W/m2
05:54 49.5 °F /  9.7 °C 47.8 °F /  8.8 °C 29.4in /  995.6hPa Calm   5mph /  8km/h 94% 0.16in /  4.1mm 0 W/m2
05:59 49.5 °F /  9.7 °C 47.8 °F /  8.8 °C 29.4in /  995.6hPa NNE 0.9mph /  1.4km/h 4mph /  6.4km/h 94% 0.16in /  4.1mm 0 W/m2
06:04 49.5 °F /  9.7 °C 47.8 °F /  8.8 °C 29.4in /  995.3hPa WNW 0.9mph /  1.4km/h 4mph /  6.4km/h 94% 0.16in /  4.1mm 0 W/m2
06:09 49.5 °F /  9.7 °C 47.8 °F /  8.8 °C 29.4in /  995.3hPa WNW 0.9mph /  1.4km/h 3mph /  4.8km/h 94% 0.16in /  4.1mm 0 W/m2
06:14 49.5 °F /  9.7 °C 47.8 °F /  8.8 °C 29.4in /  995.3hPa WSW 2mph /  3.2km/h 5mph /  8km/h 94% 0.16in /  4.1mm 0 W/m2
06:19 49.5 °F /  9.7 °C 47.8 °F /  8.8 °C 29.4in /  994.9hPa West 0.9mph /  1.4km/h 8mph /  12.9km/h 94% 0.15in /  3.8mm 0 W/m2
06:24 49.5 °F /  9.7 °C 47.8 °F /  8.8 °C 29.4in /  994.9hPa North 2.9mph /  4.7km/h 4mph /  6.4km/h 94% 0.14in /  3.6mm 0 W/m2
06:29 49.3 °F /  9.6 °C 47.7 °F /  8.7 °C 29.4in /  994.6hPa West 0.9mph /  1.4km/h 7mph /  11.3km/h 94% 0.14in /  3.6mm 0 W/m2
06:34 49.3 °F /  9.6 °C 47.7 °F /  8.7 °C 29.4in /  994.6hPa NNE 2.9mph /  4.7km/h 5mph /  8km/h 94% 0.15in /  3.8mm 0 W/m2
06:39 49.3 °F /  9.6 °C 47.7 °F /  8.7 °C 29.4in /  994.6hPa NW 2mph /  3.2km/h 3mph /  4.8km/h 94% 0.16in /  4.1mm 0 W/m2
06:44 49.5 °F /  9.7 °C 47.8 °F /  8.8 °C 29.4in /  994.6hPa WNW 4mph /  6.4km/h 6mph /  9.7km/h 94% 0.16in /  4.1mm 0 W/m2
06:49 49.5 °F /  9.7 °C 47.8 °F /  8.8 °C 29.4in /  994.6hPa WSW 4.9mph /  7.9km/h 13mph /  20.9km/h 94% 0.15in /  3.8mm 0 W/m2
06:54 49.5 °F /  9.7 °C 47.8 °F /  8.8 °C 29.4in /  994.6hPa NNW 2.9mph /  4.7km/h 5mph /  8km/h 94% 0.14in /  3.6mm 0 W/m2
06:59 49.5 °F /  9.7 °C 47.8 °F /  8.8 °C 29.4in /  994.2hPa NW 2mph /  3.2km/h 13mph /  20.9km/h 94% 0.14in /  3.6mm 0 W/m2
07:04 49.5 °F /  9.7 °C 47.8 °F /  8.8 °C 29.4in /  994.2hPa North 2mph /  3.2km/h 3mph /  4.8km/h 94% 0.13in /  3.3mm 0 W/m2
07:09 49.5 °F /  9.7 °C 47.8 °F /  8.8 °C 29.4in /  994.2hPa NNW 2.9mph /  4.7km/h 7mph /  11.3km/h 94% 0.13in /  3.3mm 0 W/m2
07:14 49.5 °F /  9.7 °C 47.8 °F /  8.8 °C 29.4in /  994.2hPa NW 4mph /  6.4km/h 4mph /  6.4km/h 94% 0.12in /  3.0mm 0 W/m2
07:19 49.5 °F /  9.7 °C 47.8 °F /  8.8 °C 29.4in /  994.2hPa North 2mph /  3.2km/h 6mph /  9.7km/h 94% 0.12in /  3.0mm 0 W/m2
07:24 49.5 °F /  9.7 °C 47.8 °F /  8.8 °C 29.4in /  994.2hPa NNW 2mph /  3.2km/h 2mph /  3.2km/h 94% 0.13in /  3.3mm 0 W/m2
07:29 49.5 °F /  9.7 °C 47.8 °F /  8.8 °C 29.4in /  994.2hPa Calm   4mph /  6.4km/h 94% 0.13in /  3.3mm 0 W/m2
07:34 49.5 °F /  9.7 °C 47.8 °F /  8.8 °C 29.4in /  994.2hPa Calm   5mph /  8km/h 94% 0.12in /  3.0mm 0 W/m2
07:39 49.5 °F /  9.7 °C 47.8 °F /  8.8 °C 29.4in /  994.2hPa NNE 2mph /  3.2km/h 3mph /  4.8km/h 94% 0.12in /  3.0mm 0 W/m2
07:44 49.5 °F /  9.7 °C 47.8 °F /  8.8 °C 29.4in /  994.2hPa East 2.9mph /  4.7km/h 4mph /  6.4km/h 94% 0.12in /  3.0mm 0 W/m2
07:49 49.5 °F /  9.7 °C 48 °F /  8.9 °C 29.4in /  994.2hPa Calm   3mph /  4.8km/h 95% 0.13in /  3.3mm 0 W/m2
07:54 49.5 °F /  9.7 °C 48 °F /  8.9 °C 29.4in /  994.2hPa ENE 2mph /  3.2km/h 3mph /  4.8km/h 95% 0.13in /  3.3mm 0 W/m2
07:59 49.5 °F /  9.7 °C 48 °F /  8.9 °C 29.4in /  994.2hPa ENE 0.9mph /  1.4km/h 5mph /  8km/h 95% 0.14in /  3.6mm 5 W/m2
08:04 49.6 °F /  9.8 °C 48.2 °F /  9 °C 29.4in /  994.2hPa ENE 2mph /  3.2km/h 5mph /  8km/h 95% 0.15in /  3.8mm 9 W/m2
08:09 49.6 °F /  9.8 °C 48.2 °F /  9 °C 29.4in /  994.2hPa ESE 2.9mph /  4.7km/h 5mph /  8km/h 95% 0.15in /  3.8mm 11 W/m2
08:14 49.5 °F /  9.7 °C 48 °F /  8.9 °C 29.4in /  994.2hPa ENE 2.9mph /  4.7km/h 5mph /  8km/h 95% 0.16in /  4.1mm 14 W/m2
08:19 49.5 °F /  9.7 °C 48 °F /  8.9 °C 29.4in /  994.2hPa ENE 4mph /  6.4km/h 5mph /  8km/h 95% 0.15in /  3.8mm 16 W/m2
08:24 49.5 °F /  9.7 °C 48 °F /  8.9 °C 29.4in /  994.2hPa NE 0.9mph /  1.4km/h 4mph /  6.4km/h 95% 0.14in /  3.6mm 18 W/m2
08:29 49.3 °F /  9.6 °C 47.8 °F /  8.8 °C 29.4in /  994.2hPa ENE 4mph /  6.4km/h 8mph /  12.9km/h 95% 0.13in /  3.3mm 23 W/m2
08:34 49.1 °F /  9.5 °C 47.7 °F /  8.7 °C 29.4in /  994.2hPa ENE 2mph /  3.2km/h 10mph /  16.1km/h 95% 0.13in /  3.3mm 26 W/m2
08:39 49.1 °F /  9.5 °C 47.7 °F /  8.7 °C 29.4in /  994.2hPa ESE 4mph /  6.4km/h 7mph /  11.3km/h 95% 0.12in /  3.0mm 37 W/m2
08:44 48.9 °F /  9.4 °C 47.5 °F /  8.6 °C 29.4in /  994.2hPa NE 2mph /  3.2km/h 10mph /  16.1km/h 95% 0.11in /  2.8mm 40 W/m2
08:49 48.9 °F /  9.4 °C 47.5 °F /  8.6 °C 29.4in /  994.2hPa East 6.9mph /  11.1km/h 8mph /  12.9km/h 95% 0.1in /  2.5mm 39 W/m2
08:54 48.9 °F /  9.4 °C 47.5 °F /  8.6 °C 29.4in /  994.2hPa ENE 8.1mph /  13km/h 10mph /  16.1km/h 95% 0.09in /  2.3mm 35 W/m2
09:02 48.9 °F /  9.4 °C 47.5 °F /  8.6 °C 29.4in /  994.6hPa NE 2mph /  3.2km/h 7mph /  11.3km/h 95% 0.06in /  1.5mm 37 W/m2
09:07 48.9 °F /  9.4 °C 47.5 °F /  8.6 °C 29.4in /  994.6hPa East 2mph /  3.2km/h 7mph /  11.3km/h 95% 0.06in /  1.5mm 39 W/m2
09:12 48.9 °F /  9.4 °C 47.5 °F /  8.6 °C 29.4in /  994.6hPa NE 4mph /  6.4km/h 5mph /  8km/h 95% 0.05in /  1.3mm 35 W/m2
09:17 48.9 °F /  9.4 °C 47.5 °F /  8.6 °C 29.4in /  994.6hPa NNE 0.9mph /  1.4km/h 7mph /  11.3km/h 95% 0.05in /  1.3mm 42 W/m2
09:22 48.9 °F /  9.4 °C 47.8 °F /  8.8 °C 29.4in /  994.6hPa ENE 2.9mph /  4.7km/h 5mph /  8km/h 96% 0.04in /  1.0mm 58 W/m2
09:27 49.1 °F /  9.5 °C 48 °F /  8.9 °C 29.4in /  994.9hPa East 2mph /  3.2km/h 5mph /  8km/h 96% 0.03in /  0.8mm 70 W/m2
09:32 49.1 °F /  9.5 °C 48 °F /  8.9 °C 29.4in /  994.9hPa NNE 2mph /  3.2km/h 4mph /  6.4km/h 96% 0.03in /  0.8mm 72 W/m2
09:37 49.3 °F /  9.6 °C 48.2 °F /  9 °C 29.4in /  994.9hPa ENE 4.9mph /  7.9km/h 5mph /  8km/h 96% 0.02in /  0.5mm 76 W/m2
09:42 49.3 °F /  9.6 °C 48.2 °F /  9 °C 29.4in /  995.3hPa ENE 2mph /  3.2km/h 8mph /  12.9km/h 96% 0.02in /  0.5mm 95 W/m2
09:47 49.5 °F /  9.7 °C 48.4 °F /  9.1 °C 29.4in /  995.3hPa ENE 0.9mph /  1.4km/h 3mph /  4.8km/h 96% 0.02in /  0.5mm 107 W/m2
09:52 49.6 °F /  9.8 °C 48.6 °F /  9.2 °C 29.4in /  995.3hPa ENE 2mph /  3.2km/h 9mph /  14.5km/h 96% 0.02in /  0.5mm 91 W/m2
09:57 49.6 °F /  9.8 °C 48.6 °F /  9.2 °C 29.4in /  995.3hPa SE 0.9mph /  1.4km/h 5mph /  8km/h 96% 0.02in /  0.5mm 190 W/m2
10:02 50 °F /  10 °C 48.9 °F /  9.4 °C 29.4in /  995.6hPa NE 2mph /  3.2km/h 9mph /  14.5km/h 96% 0.01in /  0.2mm 139 W/m2
10:07 50 °F /  10 °C 48.9 °F /  9.4 °C 29.4in /  995.6hPa East 2.9mph /  4.7km/h 4mph /  6.4km/h 96% 0.01in /  0.2mm 84 W/m2
10:12 50 °F /  10 °C 48.9 °F /  9.4 °C 29.4in /  995.6hPa Calm   1mph /  1.6km/h 96% 0.01in /  0.2mm 69 W/m2
10:21 50 °F /  10 °C 48.9 °F /  9.4 °C 29.4in /  995.9hPa SSE 0.9mph /  1.4km/h 3mph /  4.8km/h 96% 0in /  0.0mm 149 W/m2
10:26 50.2 °F /  10.1 °C 49.1 °F /  9.5 °C 29.4in /  995.9hPa NE 2mph /  3.2km/h 4mph /  6.4km/h 96% 0in /  0.0mm 97 W/m2
10:31 50.4 °F /  10.2 °C 49.3 °F /  9.6 °C 29.4in /  995.9hPa ENE 2mph /  3.2km/h 6mph /  9.7km/h 96% 0in /  0.0mm 116 W/m2
10:36 50.4 °F /  10.2 °C 49.3 °F /  9.6 °C 29.4in /  995.9hPa NE 0.9mph /  1.4km/h 4mph /  6.4km/h 96% 0in /  0.0mm 120 W/m2
10:41 50.5 °F /  10.3 °C 49.5 °F /  9.7 °C 29.4in /  996.3hPa East 2.9mph /  4.7km/h 5mph /  8km/h 96% 0in /  0.0mm 109 W/m2
10:46 50.7 °F /  10.4 °C 49.6 °F /  9.8 °C 29.4in /  996.3hPa East 2mph /  3.2km/h 6mph /  9.7km/h 96% 0in /  0.0mm 113 W/m2
10:51 50.7 °F /  10.4 °C 49.6 °F /  9.8 °C 29.4in /  996.6hPa ESE 0.9mph /  1.4km/h 2mph /  3.2km/h 96% 0in /  0.0mm 121 W/m2
10:56 50.7 °F /  10.4 °C 49.6 °F /  9.8 °C 29.4in /  996.6hPa ENE 0.9mph /  1.4km/h 6mph /  9.7km/h 96% 0in /  0.0mm 104 W/m2
11:01 50.9 °F /  10.5 °C 49.8 °F /  9.9 °C 29.4in /  997.0hPa Calm   3mph /  4.8km/h 96% 0in /  0.0mm 98 W/m2
11:06 50.9 °F /  10.5 °C 49.8 °F /  9.9 °C 29.4in /  997.0hPa SE 0.9mph /  1.4km/h 2mph /  3.2km/h 96% 0in /  0.0mm 97 W/m2
11:11 51.1 °F /  10.6 °C 50 °F /  10 °C 29.4in /  997.0hPa ENE 2mph /  3.2km/h 3mph /  4.8km/h 96% 0in /  0.0mm 141 W/m2
11:16 51.1 °F /  10.6 °C 50 °F /  10 °C 29.4in /  997.0hPa ESE 2mph /  3.2km/h 3mph /  4.8km/h 96% 0in /  0.0mm 109 W/m2
11:21 51.3 °F /  10.7 °C 50.2 °F /  10.1 °C 29.4in /  997.0hPa ESE 0.9mph /  1.4km/h 3mph /  4.8km/h 96% 0in /  0.0mm 139 W/m2
11:26 51.4 °F /  10.8 °C 50.4 °F /  10.2 °C 29.4in /  997.0hPa Calm   3mph /  4.8km/h 96% 0in /  0.0mm 188 W/m2
11:31 51.4 °F /  10.8 °C 50.4 °F /  10.2 °C 29.5in /  997.3hPa Calm   4mph /  6.4km/h 96% 0in /  0.0mm 139 W/m2
11:36 51.6 °F /  10.9 °C 50.5 °F /  10.3 °C 29.5in /  997.3hPa ENE 2mph /  3.2km/h 5mph /  8km/h 96% 0in /  0.0mm 176 W/m2
11:41 51.6 °F /  10.9 °C 50.5 °F /  10.3 °C 29.5in /  997.6hPa NW 0.9mph /  1.4km/h 2mph /  3.2km/h 96% 0in /  0.0mm 163 W/m2
11:46 51.6 °F /  10.9 °C 50.5 °F /  10.3 °C 29.5in /  997.6hPa ENE 2.9mph /  4.7km/h 4mph /  6.4km/h 96% 0in /  0.0mm 197 W/m2
11:51 51.8 °F /  11 °C 50.7 °F /  10.4 °C 29.5in /  998.0hPa ENE 0.9mph /  1.4km/h 3mph /  4.8km/h 96% 0in /  0.0mm 167 W/m2
11:56 52 °F /  11.1 °C 50.9 °F /  10.5 °C 29.5in /  998.0hPa Calm   4mph /  6.4km/h 96% 0.01in /  0.2mm 167 W/m2
12:01 52 °F /  11.1 °C 50.5 °F /  10.3 °C 29.5in /  998.0hPa Calm   4mph /  6.4km/h 95% 0.01in /  0.2mm 174 W/m2
12:06 52 °F /  11.1 °C 50.5 °F /  10.3 °C 29.5in /  998.0hPa ENE 0.9mph /  1.4km/h 4mph /  6.4km/h 95% 0.01in /  0.2mm 294 W/m2
12:11 52.2 °F /  11.2 °C 51.1 °F /  10.6 °C 29.5in /  998.0hPa ENE 0.9mph /  1.4km/h 7mph /  11.3km/h 96% 0.01in /  0.2mm 221 W/m2
12:16 52.2 °F /  11.2 °C 50.7 °F /  10.4 °C 29.5in /  998.3hPa NE 4mph /  6.4km/h 4mph /  6.4km/h 95% 0.01in /  0.2mm 279 W/m2
12:21 52.5 °F /  11.4 °C 51.1 °F /  10.6 °C 29.5in /  998.3hPa ENE 2.9mph /  4.7km/h 7mph /  11.3km/h 95% 0.01in /  0.2mm 186 W/m2
12:26 52.5 °F /  11.4 °C 51.1 °F /  10.6 °C 29.5in /  998.6hPa NE 0.9mph /  1.4km/h 2mph /  3.2km/h 95% 0.01in /  0.2mm 181 W/m2
12:31 52.5 °F /  11.4 °C 51.1 °F /  10.6 °C 29.5in /  998.6hPa NNE 0.9mph /  1.4km/h 6mph /  9.7km/h 95% 0.01in /  0.2mm 179 W/m2
12:36 52.7 °F /  11.5 °C 51.1 °F /  10.6 °C 29.5in /  998.6hPa SE 0.9mph /  1.4km/h 5mph /  8km/h 94% 0.01in /  0.2mm 144 W/m2
12:41 52.7 °F /  11.5 °C 51.1 °F /  10.6 °C 29.5in /  998.6hPa Calm   3mph /  4.8km/h 94% 0.01in /  0.2mm 236 W/m2
12:46 52.9 °F /  11.6 °C 51.3 °F /  10.7 °C 29.5in /  999.0hPa ENE 2.9mph /  4.7km/h 5mph /  8km/h 94% 0.01in /  0.2mm 142 W/m2
12:51 52.9 °F /  11.6 °C 51.3 °F /  10.7 °C 29.5in /  999.0hPa East 2mph /  3.2km/h 4mph /  6.4km/h 94% 0.01in /  0.2mm 156 W/m2
12:56 52.9 °F /  11.6 °C 51.3 °F /  10.7 °C 29.5in /  999.0hPa NNE 2mph /  3.2km/h 4mph /  6.4km/h 94% 0in /  0.0mm 214 W/m2
13:01 52.9 °F /  11.6 °C 51.3 °F /  10.7 °C 29.5in /  999.3hPa East 0.9mph /  1.4km/h 3mph /  4.8km/h 94% 0in /  0.0mm 213 W/m2
13:06 53.1 °F /  11.7 °C 51.1 °F /  10.6 °C 29.5in /  999.3hPa ESE 2mph /  3.2km/h 4mph /  6.4km/h 93% 0in /  0.0mm 199 W/m2
13:11 53.2 °F /  11.8 °C 51.3 °F /  10.7 °C 29.5in /  999.3hPa Calm   3mph /  4.8km/h 93% 0in /  0.0mm 207 W/m2
13:16 53.2 °F /  11.8 °C 50.9 °F /  10.5 °C 29.5in /  999.7hPa ESE 2.9mph /  4.7km/h 5mph /  8km/h 92% 0in /  0.0mm 144 W/m2
13:21 53.2 °F /  11.8 °C 50.9 °F /  10.5 °C 29.5in /  999.7hPa NE 2mph /  3.2km/h 5mph /  8km/h 92% 0in /  0.0mm 118 W/m2
13:26 53.2 °F /  11.8 °C 50.9 °F /  10.5 °C 29.5in /  999.7hPa ESE 0.9mph /  1.4km/h 3mph /  4.8km/h 92% 0in /  0.0mm 221 W/m2
13:31 53.2 °F /  11.8 °C 51.3 °F /  10.7 °C 29.5in /  999.7hPa NE 0.9mph /  1.4km/h 5mph /  8km/h 93% 0in /  0.0mm 350 W/m2
13:36 53.4 °F /  11.9 °C 51.4 °F /  10.8 °C 29.5in /  999.7hPa East 0.9mph /  1.4km/h 6mph /  9.7km/h 93% 0in /  0.0mm 248 W/m2
13:41 53.6 °F /  12 °C 51.6 °F /  10.9 °C 29.5in /  999.7hPa ENE 0.9mph /  1.4km/h 6mph /  9.7km/h 93% 0in /  0.0mm 77 W/m2
13:46 53.6 °F /  12 °C 51.3 °F /  10.7 °C 29.5in /  1000.0hPa Calm   4mph /  6.4km/h 92% 0in /  0.0mm 146 W/m2
13:51 53.6 °F /  12 °C 51.3 °F /  10.7 °C 29.5in /  1000.0hPa East 2mph /  3.2km/h 5mph /  8km/h 92% 0in /  0.0mm 105 W/m2
13:56 53.4 °F /  11.9 °C 51.1 °F /  10.6 °C 29.5in /  1000.0hPa ENE 2.9mph /  4.7km/h 6mph /  9.7km/h 92% 0in /  0.0mm 116 W/m2
14:01 53.4 °F /  11.9 °C 51.1 °F /  10.6 °C 29.5in /  1000.0hPa East 4.9mph /  7.9km/h 5mph /  8km/h 92% 0in /  0.0mm 176 W/m2
14:06 53.4 °F /  11.9 °C 51.4 °F /  10.8 °C 29.5in /  1000.3hPa ENE 2mph /  3.2km/h 4mph /  6.4km/h 93% 0in /  0.0mm 123 W/m2
14:11 53.2 °F /  11.8 °C 50.9 °F /  10.5 °C 29.5in /  1000.3hPa NNE 4mph /  6.4km/h 5mph /  8km/h 92% 0in /  0.0mm 116 W/m2
14:16 53.2 °F /  11.8 °C 51.3 °F /  10.7 °C 29.5in /  1000.3hPa ENE 2.9mph /  4.7km/h 8mph /  12.9km/h 93% 0in /  0.0mm 118 W/m2
14:21 53.2 °F /  11.8 °C 51.3 °F /  10.7 °C 29.5in /  1000.3hPa ENE 2.9mph /  4.7km/h 8mph /  12.9km/h 93% 0in /  0.0mm 62 W/m2
14:26 53.1 °F /  11.7 °C 50.7 °F /  10.4 °C 29.5in /  1000.3hPa East 2mph /  3.2km/h 6mph /  9.7km/h 92% 0.01in /  0.2mm 91 W/m2
14:31 52.9 °F /  11.6 °C 50.9 °F /  10.5 °C 29.6in /  1000.7hPa NE 9mph /  14.5km/h 9mph /  14.5km/h 93% 0.01in /  0.2mm 149 W/m2
14:36 53.1 °F /  11.7 °C 51.1 °F /  10.6 °C 29.6in /  1000.7hPa SSE 2mph /  3.2km/h 3mph /  4.8km/h 93% 0.01in /  0.2mm 86 W/m2
14:41 53.1 °F /  11.7 °C 51.1 °F /  10.6 °C 29.6in /  1000.7hPa ENE 2.9mph /  4.7km/h 10mph /  16.1km/h 93% 0.02in /  0.5mm 70 W/m2
14:46 52.9 °F /  11.6 °C 50.9 °F /  10.5 °C 29.6in /  1000.7hPa East 0.9mph /  1.4km/h 1mph /  1.6km/h 93% 0.02in /  0.5mm 176 W/m2
14:51 53.1 °F /  11.7 °C 51.4 °F /  10.8 °C 29.6in /  1001.0hPa East 2mph /  3.2km/h 10mph /  16.1km/h 94% 0.02in /  0.5mm 163 W/m2
14:56 53.2 °F /  11.8 °C 51.3 °F /  10.7 °C 29.6in /  1001.0hPa ENE 4mph /  6.4km/h 9mph /  14.5km/h 93% 0.02in /  0.5mm 207 W/m2
15:01 53.4 °F /  11.9 °C 51.8 °F /  11 °C 29.6in /  1001.0hPa Calm   3mph /  4.8km/h 94% 0.02in /  0.5mm 387 W/m2
15:06 53.8 °F /  12.1 °C 51.8 °F /  11 °C 29.6in /  1001.0hPa NE 0.9mph /  1.4km/h 3mph /  4.8km/h 93% 0.02in /  0.5mm 415 W/m2
15:11 54.1 °F /  12.3 °C 52.5 °F /  11.4 °C 29.6in /  1001.4hPa NE 2mph /  3.2km/h 3mph /  4.8km/h 94% 0.02in /  0.5mm 278 W/m2
15:16 54.3 °F /  12.4 °C 52.3 °F /  11.3 °C 29.6in /  1001.4hPa East 2.9mph /  4.7km/h 5mph /  8km/h 93% 0.02in /  0.5mm 135 W/m2
15:21 54.1 °F /  12.3 °C 51.8 °F /  11 °C 29.6in /  1001.4hPa East 6mph /  9.7km/h 6mph /  9.7km/h 92% 0.02in /  0.5mm 156 W/m2
15:26 53.8 °F /  12.1 °C 51.4 °F /  10.8 °C 29.6in /  1001.4hPa ENE 2mph /  3.2km/h 9mph /  14.5km/h 92% 0.02in /  0.5mm 79 W/m2
15:31 53.6 °F /  12 °C 51.3 °F /  10.7 °C 29.6in /  1001.7hPa East 0.9mph /  1.4km/h 4mph /  6.4km/h 92% 0.02in /  0.5mm 95 W/m2
15:36 53.8 °F /  12.1 °C 51.8 °F /  11 °C 29.6in /  1001.7hPa East 2mph /  3.2km/h 9mph /  14.5km/h 93% 0.02in /  0.5mm 225 W/m2
15:41 53.8 °F /  12.1 °C 51.8 °F /  11 °C 29.6in /  1001.7hPa Calm   4mph /  6.4km/h 93% 0.01in /  0.2mm 230 W/m2
15:46 53.8 °F /  12.1 °C 51.4 °F /  10.8 °C 29.6in /  1001.7hPa East 2mph /  3.2km/h 8mph /  12.9km/h 92% 0in /  0.0mm 232 W/m2
15:52 53.8 °F /  12.1 °C 51.4 °F /  10.8 °C 29.6in /  1002.0hPa East 2mph /  3.2km/h 6mph /  9.7km/h 92% 0in /  0.0mm 216 W/m2
15:57 54 °F /  12.2 °C 51.6 °F /  10.9 °C 29.6in /  1002.0hPa East 0.9mph /  1.4km/h 8mph /  12.9km/h 92% 0in /  0.0mm 366 W/m2
16:02 54.5 °F /  12.5 °C 52.2 °F /  11.2 °C 29.6in /  1002.0hPa NW 0.9mph /  1.4km/h 3mph /  4.8km/h 92% 0in /  0.0mm 232 W/m2
16:07 54.9 °F /  12.7 °C 52.5 °F /  11.4 °C 29.6in /  1002.0hPa East 2mph /  3.2km/h 2mph /  3.2km/h 92% 0in /  0.0mm 257 W/m2
16:12 54.9 °F /  12.7 °C 52 °F /  11.1 °C 29.6in /  1002.0hPa East 0.9mph /  1.4km/h 7mph /  11.3km/h 90% 0in /  0.0mm 169 W/m2
16:17 54.7 °F /  12.6 °C 51.8 °F /  11 °C 29.6in /  1002.0hPa NE 2mph /  3.2km/h 3mph /  4.8km/h 90% 0in /  0.0mm 185 W/m2
16:22 54.3 °F /  12.4 °C 51.1 °F /  10.6 °C 29.6in /  1002.4hPa East 2.9mph /  4.7km/h 6mph /  9.7km/h 89% 0in /  0.0mm 216 W/m2
16:27 54.1 °F /  12.3 °C 50.9 °F /  10.5 °C 29.6in /  1002.4hPa ESE 2mph /  3.2km/h 4mph /  6.4km/h 89% 0in /  0.0mm 251 W/m2
16:32 54.3 °F /  12.4 °C 51.4 °F /  10.8 °C 29.6in /  1002.7hPa ENE 2mph /  3.2km/h 2mph /  3.2km/h 90% 0in /  0.0mm 353 W/m2
16:37 54.5 °F /  12.5 °C 51.3 °F /  10.7 °C 29.6in /  1002.4hPa Calm   3mph /  4.8km/h 89% 0in /  0.0mm 163 W/m2
16:42 54.5 °F /  12.5 °C 51.3 °F /  10.7 °C 29.6in /  1002.7hPa SE 0.9mph /  1.4km/h 3mph /  4.8km/h 89% 0in /  0.0mm 142 W/m2
16:47 54.5 °F /  12.5 °C 51.1 °F /  10.6 °C 29.6in /  1002.7hPa ENE 0.9mph /  1.4km/h 4mph /  6.4km/h 88% 0in /  0.0mm 74 W/m2
16:52 54.3 °F /  12.4 °C 50.5 °F /  10.3 °C 29.6in /  1002.7hPa ESE 2mph /  3.2km/h 4mph /  6.4km/h 87% 0in /  0.0mm 139 W/m2
16:57 54.1 °F /  12.3 °C 50.7 °F /  10.4 °C 29.6in /  1002.7hPa SW 2mph /  3.2km/h 3mph /  4.8km/h 88% 0in /  0.0mm 156 W/m2
17:02 54.1 °F /  12.3 °C 50.7 °F /  10.4 °C 29.6in /  1003.0hPa NE 4.9mph /  7.9km/h 5mph /  8km/h 88% 0in /  0.0mm 137 W/m2
17:07 54 °F /  12.2 °C 50.5 °F /  10.3 °C 29.6in /  1003.0hPa ESE 2mph /  3.2km/h 4mph /  6.4km/h 88% 0in /  0.0mm 181 W/m2
17:12 54 °F /  12.2 °C 50.5 °F /  10.3 °C 29.6in /  1003.0hPa Calm   3mph /  4.8km/h 88% 0in /  0.0mm 165 W/m2
17:17 54.3 °F /  12.4 °C 51.1 °F /  10.6 °C 29.6in /  1003.0hPa Calm   2mph /  3.2km/h 89% 0in /  0.0mm 406 W/m2
17:22 54.3 °F /  12.4 °C 50.9 °F /  10.5 °C 29.6in /  1003.0hPa ENE 4mph /  6.4km/h 5mph /  8km/h 88% 0in /  0.0mm 125 W/m2
17:27 54 °F /  12.2 °C 50.2 °F /  10.1 °C 29.6in /  1003.0hPa East 2mph /  3.2km/h 4mph /  6.4km/h 87% 0in /  0.0mm 125 W/m2
17:32 53.8 °F /  12.1 °C 50 °F /  10 °C 29.6in /  1003.4hPa NNE 2mph /  3.2km/h 6mph /  9.7km/h 87% 0in /  0.0mm 113 W/m2
17:37 53.8 °F /  12.1 °C 50.4 °F /  10.2 °C 29.6in /  1003.4hPa East 2.9mph /  4.7km/h 4mph /  6.4km/h 88% 0in /  0.0mm 81 W/m2
17:42 53.4 °F /  11.9 °C 50 °F /  10 °C 29.6in /  1003.7hPa NE 2.9mph /  4.7km/h 4mph /  6.4km/h 88% 0in /  0.0mm 95 W/m2
17:47 53.2 °F /  11.8 °C 49.8 °F /  9.9 °C 29.6in /  1003.7hPa East 4mph /  6.4km/h 4mph /  6.4km/h 88% 0in /  0.0mm 135 W/m2
17:52 52.9 °F /  11.6 °C 49.5 °F /  9.7 °C 29.6in /  1003.7hPa East 2.9mph /  4.7km/h 8mph /  12.9km/h 88% 0in /  0.0mm 88 W/m2
17:57 52.9 °F /  11.6 °C 49.6 °F /  9.8 °C 29.7in /  1004.1hPa WSW 2.9mph /  4.7km/h 4mph /  6.4km/h 89% 0in /  0.0mm 90 W/m2
18:02 52.5 °F /  11.4 °C 49.5 °F /  9.7 °C 29.7in /  1004.1hPa East 2mph /  3.2km/h 2mph /  3.2km/h 89% 0in /  0.0mm 102 W/m2
18:07 52.7 °F /  11.5 °C 49.5 °F /  9.7 °C 29.7in /  1004.1hPa NE 0.9mph /  1.4km/h 7mph /  11.3km/h 89% 0in /  0.0mm 60 W/m2
18:12 52.5 °F /  11.4 °C 49.5 °F /  9.7 °C 29.7in /  1004.1hPa NNW 2.9mph /  4.7km/h 3mph /  4.8km/h 89% 0in /  0.0mm 69 W/m2
18:17 52.3 °F /  11.3 °C 49.3 °F /  9.6 °C 29.7in /  1004.4hPa SE 0.9mph /  1.4km/h 4mph /  6.4km/h 89% 0in /  0.0mm 51 W/m2
18:22 52.2 °F /  11.2 °C 49.3 °F /  9.6 °C 29.7in /  1004.4hPa West 0.9mph /  1.4km/h 3mph /  4.8km/h 90% 0in /  0.0mm 32 W/m2
18:27 52 °F /  11.1 °C 49.1 °F /  9.5 °C 29.7in /  1004.4hPa SW 0.9mph /  1.4km/h 2mph /  3.2km/h 90% 0in /  0.0mm 33 W/m2
18:32 51.8 °F /  11 °C 48.9 °F /  9.4 °C 29.7in /  1004.4hPa West 0.9mph /  1.4km/h 3mph /  4.8km/h 90% 0in /  0.0mm 37 W/m2
18:37 51.6 °F /  10.9 °C 48.7 °F /  9.3 °C 29.7in /  1004.7hPa NE 2mph /  3.2km/h 4mph /  6.4km/h 90% 0in /  0.0mm 39 W/m2
18:42 51.4 °F /  10.8 °C 48.6 °F /  9.2 °C 29.7in /  1004.7hPa SSE 2mph /  3.2km/h 3mph /  4.8km/h 90% 0in /  0.0mm 37 W/m2
18:47 51.4 °F /  10.8 °C 48.6 °F /  9.2 °C 29.7in /  1004.7hPa Calm   1mph /  1.6km/h 90% 0in /  0.0mm 30 W/m2
18:52 51.3 °F /  10.7 °C 48.4 °F /  9.1 °C 29.7in /  1004.7hPa Calm   1mph /  1.6km/h 90% 0in /  0.0mm 21 W/m2
18:57 51.3 °F /  10.7 °C 48.7 °F /  9.3 °C 29.7in /  1005.1hPa East 2.9mph /  4.7km/h 3mph /  4.8km/h 91% 0in /  0.0mm 14 W/m2
19:02 51.3 °F /  10.7 °C 48.7 °F /  9.3 °C 29.7in /  1005.1hPa ENE 0.9mph /  1.4km/h 1mph /  1.6km/h 91% 0in /  0.0mm 9 W/m2
19:07 51.1 °F /  10.6 °C 48.6 °F /  9.2 °C 29.7in /  1005.1hPa Calm   4mph /  6.4km/h 91% 0in /  0.0mm 5 W/m2
19:12 51.1 °F /  10.6 °C 48.6 °F /  9.2 °C 29.7in /  1005.1hPa SE 0.9mph /  1.4km/h 5mph /  8km/h 91% 0in /  0.0mm 5 W/m2
19:17 50.9 °F /  10.5 °C 48 °F /  8.9 °C 29.7in /  1005.4hPa NNE 0.9mph /  1.4km/h 1mph /  1.6km/h 90% 0in /  0.0mm 0 W/m2
19:22 50.7 °F /  10.4 °C 47.8 °F /  8.8 °C 29.7in /  1005.4hPa NNE 2mph /  3.2km/h 5mph /  8km/h 90% 0in /  0.0mm 0 W/m2
19:27 50.5 °F /  10.3 °C 48 °F /  8.9 °C 29.7in /  1005.4hPa Calm   1mph /  1.6km/h 91% 0in /  0.0mm 0 W/m2
19:33 50.5 °F /  10.3 °C 48 °F /  8.9 °C 29.7in /  1005.4hPa Calm   3mph /  4.8km/h 91% 0in /  0.0mm 0 W/m2
19:38 50.2 °F /  10.1 °C 47.7 °F /  8.7 °C 29.7in /  1005.4hPa Calm   1mph /  1.6km/h 91% 0in /  0.0mm 0 W/m2
19:43 49.8 °F /  9.9 °C 47.3 °F /  8.5 °C 29.7in /  1005.4hPa Calm     91% 0in /  0.0mm 0 W/m2
19:48 49.6 °F /  9.8 °C 47.1 °F /  8.4 °C 29.7in /  1005.4hPa Calm     91% 0in /  0.0mm 0 W/m2
19:53 49.5 °F /  9.7 °C 47.3 °F /  8.5 °C 29.7in /  1005.4hPa Calm     92% 0in /  0.0mm 0 W/m2
19:58 49.3 °F /  9.6 °C 47.1 °F /  8.4 °C 29.7in /  1005.4hPa Calm   1mph /  1.6km/h 92% 0in /  0.0mm 0 W/m2
20:03 48.9 °F /  9.4 °C 46.8 °F /  8.2 °C 29.7in /  1005.8hPa Calm     92% 0in /  0.0mm 0 W/m2
20:08 48.7 °F /  9.3 °C 46.8 °F /  8.2 °C 29.7in /  1005.8hPa Calm     93% 0in /  0.0mm 0 W/m2
20:13 48.6 °F /  9.2 °C 46.6 °F /  8.1 °C 29.7in /  1006.1hPa Calm     93% 0in /  0.0mm 0 W/m2
20:18 48.4 °F /  9.1 °C 46.4 °F /  8 °C 29.7in /  1006.1hPa Calm     93% 0in /  0.0mm 0 W/m2
20:23 48 °F /  8.9 °C 46 °F /  7.8 °C 29.7in /  1006.1hPa Calm     93% 0in /  0.0mm 0 W/m2
20:28 47.8 °F /  8.8 °C 45.9 °F /  7.7 °C 29.7in /  1006.1hPa Calm     93% 0in /  0.0mm 0 W/m2
20:33 47.8 °F /  8.8 °C 45.9 °F /  7.7 °C 29.7in /  1006.4hPa Calm     93% 0in /  0.0mm 0 W/m2
20:38 47.7 °F /  8.7 °C 46 °F /  7.8 °C 29.7in /  1006.4hPa Calm     94% 0in /  0.0mm 0 W/m2
20:43 47.7 °F /  8.7 °C 46 °F /  7.8 °C 29.7in /  1006.4hPa Calm   2mph /  3.2km/h 94% 0in /  0.0mm 0 W/m2
20:48 47.7 °F /  8.7 °C 46 °F /  7.8 °C 29.7in /  1006.4hPa South 0.9mph /  1.4km/h 1mph /  1.6km/h 94% 0in /  0.0mm 0 W/m2
20:53 47.7 °F /  8.7 °C 46 °F /  7.8 °C 29.7in /  1006.4hPa South 0.9mph /  1.4km/h 2mph /  3.2km/h 94% 0in /  0.0mm 0 W/m2
20:58 47.7 °F /  8.7 °C 46 °F /  7.8 °C 29.7in /  1006.4hPa Calm     94% 0in /  0.0mm 0 W/m2
21:03 47.7 °F /  8.7 °C 46 °F /  7.8 °C 29.7in /  1006.4hPa Calm     94% 0in /  0.0mm 0 W/m2
21:08 47.5 °F /  8.6 °C 45.9 °F /  7.7 °C 29.7in /  1006.4hPa Calm     94% 0in /  0.0mm 0 W/m2
21:13 47.5 °F /  8.6 °C 45.9 °F /  7.7 °C 29.7in /  1006.4hPa Calm     94% 0in /  0.0mm 0 W/m2
21:18 47.3 °F /  8.5 °C 45.7 °F /  7.6 °C 29.7in /  1006.4hPa Calm     94% 0in /  0.0mm 0 W/m2
21:23 47.3 °F /  8.5 °C 45.7 °F /  7.6 °C 29.7in /  1006.8hPa Calm     94% 0in /  0.0mm 0 W/m2
21:28 47.5 °F /  8.6 °C 46 °F /  7.8 °C 29.7in /  1006.8hPa Calm     95% 0in /  0.0mm 0 W/m2
21:33 47.5 °F /  8.6 °C 46 °F /  7.8 °C 29.7in /  1006.8hPa Calm     95% 0in /  0.0mm 0 W/m2
21:38 47.7 °F /  8.7 °C 46.2 °F /  7.9 °C 29.7in /  1007.1hPa Calm     95% 0in /  0.0mm 0 W/m2
21:43 47.7 °F /  8.7 °C 46.2 °F /  7.9 °C 29.7in /  1007.1hPa Calm     95% 0in /  0.0mm 0 W/m2
21:48 47.7 °F /  8.7 °C 46.2 °F /  7.9 °C 29.7in /  1007.1hPa Calm     95% 0in /  0.0mm 0 W/m2
21:53 47.7 °F /  8.7 °C 46.2 °F /  7.9 °C 29.7in /  1007.1hPa Calm     95% 0in /  0.0mm 0 W/m2
21:58 47.7 °F /  8.7 °C 46.2 °F /  7.9 °C 29.7in /  1007.1hPa Calm     95% 0in /  0.0mm 0 W/m2
22:03 47.7 °F /  8.7 °C 46.2 °F /  7.9 °C 29.8in /  1007.5hPa Calm     95% 0in /  0.0mm 0 W/m2
22:08 47.7 °F /  8.7 °C 46.2 °F /  7.9 °C 29.7in /  1007.1hPa Calm     95% 0in /  0.0mm 0 W/m2
22:13 47.7 °F /  8.7 °C 46.2 °F /  7.9 °C 29.8in /  1007.5hPa Calm     95% 0in /  0.0mm 0 W/m2
22:18 47.5 °F /  8.6 °C 46 °F /  7.8 °C 29.8in /  1007.5hPa Calm     95% 0in /  0.0mm 0 W/m2
22:23 47.5 °F /  8.6 °C 46 °F /  7.8 °C 29.8in /  1007.5hPa Calm     95% 0in /  0.0mm 0 W/m2
22:28 47.3 °F /  8.5 °C 45.9 °F /  7.7 °C 29.8in /  1007.5hPa Calm     95% 0in /  0.0mm 0 W/m2
22:33 47.1 °F /  8.4 °C 45.7 °F /  7.6 °C 29.8in /  1007.5hPa Calm     95% 0in /  0.0mm 0 W/m2
22:38 47.1 °F /  8.4 °C 45.7 °F /  7.6 °C 29.8in /  1007.5hPa Calm     95% 0in /  0.0mm 0 W/m2
22:43 47.1 °F /  8.4 °C 45.7 °F /  7.6 °C 29.8in /  1007.8hPa Calm     95% 0in /  0.0mm 0 W/m2
22:48 46.9 °F /  8.3 °C 45.5 °F /  7.5 °C 29.8in /  1007.5hPa Calm     95% 0in /  0.0mm 0 W/m2
22:53 46.9 °F /  8.3 °C 45.5 °F /  7.5 °C 29.8in /  1007.5hPa Calm     95% 0in /  0.0mm 0 W/m2
22:58 46.9 °F /  8.3 °C 45.5 °F /  7.5 °C 29.8in /  1007.8hPa Calm     95% 0in /  0.0mm 0 W/m2
23:03 46.9 °F /  8.3 °C 45.5 °F /  7.5 °C 29.8in /  1007.8hPa Calm     95% 0in /  0.0mm 0 W/m2
23:08 46.6 °F /  8.1 °C 45.1 °F /  7.3 °C 29.8in /  1007.8hPa Calm     95% 0in /  0.0mm 0 W/m2
23:14 46.6 °F /  8.1 °C 45.1 °F /  7.3 °C 29.8in /  1007.5hPa Calm     95% 0in /  0.0mm 0 W/m2
23:19 46.2 °F /  7.9 °C 44.8 °F /  7.1 °C 29.8in /  1007.5hPa Calm     95% 0in /  0.0mm 0 W/m2
23:24 46 °F /  7.8 °C 44.6 °F /  7 °C 29.8in /  1007.8hPa Calm     95% 0in /  0.0mm 0 W/m2
23:29 45.9 °F /  7.7 °C 44.4 °F /  6.9 °C 29.8in /  1007.8hPa Calm     95% 0in /  0.0mm 0 W/m2
23:34 45.9 °F /  7.7 °C 44.4 °F /  6.9 °C 29.8in /  1007.5hPa Calm     95% 0in /  0.0mm 0 W/m2
23:39 45.7 °F /  7.6 °C 44.4 °F /  6.9 °C 29.8in /  1007.5hPa Calm     95% 0in /  0.0mm 0 W/m2
23:44 45.3 °F /  7.4 °C 44.1 °F /  6.7 °C 29.8in /  1007.8hPa Calm     95% 0in /  0.0mm 0 W/m2
23:49 45.3 °F /  7.4 °C 44.1 °F /  6.7 °C 29.8in /  1007.8hPa Calm     95% 0in /  0.0mm 0 W/m2
23:54 45.1 °F /  7.3 °C 43.9 °F /  6.6 °C 29.8in /  1007.8hPa Calm     95% 0in /  0.0mm 0 W/m2
23:59 45.1 °F /  7.3 °C 43.9 °F /  6.6 °C 29.8in /  1007.8hPa Calm     95% 0in /  0.0mm 0 W/m2
Juneau County Weather
Compliments of Weather Underground - 2 mb